createdAt,value
2023-02-16T00:02:24.177Z,2.00
2023-02-16T00:05:34.403Z,1.92
2023-02-16T00:08:35.861Z,1.75
2023-02-16T00:11:55.994Z,1.67
2023-02-16T00:14:58.182Z,1.63
2023-02-16T00:18:02.676Z,1.60
2023-02-16T00:21:04.584Z,1.60
2023-02-16T00:24:06.580Z,1.85
2023-02-16T00:27:16.053Z,1.80
2023-02-16T00:30:20.703Z,1.50
2023-02-16T00:33:24.240Z,1.90
2023-02-16T00:36:26.077Z,1.70
2023-02-16T00:39:28.345Z,1.50
2023-02-16T00:42:32.812Z,1.77
2023-02-16T00:45:37.558Z,1.50
2023-02-16T00:48:39.047Z,1.50
2023-02-16T00:51:40.642Z,1.40
2023-02-16T00:54:42.097Z,1.70
2023-02-16T00:57:43.726Z,1.83
2023-02-16T01:01:02.823Z,1.88
2023-02-16T01:04:06.843Z,1.60
2023-02-16T01:07:32.134Z,1.60
2023-02-16T01:10:55.338Z,1.70
2023-02-16T01:13:57.652Z,1.58
2023-02-16T01:16:59.439Z,1.70
2023-02-16T01:20:03.542Z,1.52
2023-02-16T01:23:05.069Z,1.80
2023-02-16T01:26:13.295Z,1.85
2023-02-16T01:29:17.310Z,1.50
2023-02-16T01:32:18.940Z,1.50
2023-02-16T01:35:29.202Z,1.77
2023-02-16T01:38:30.803Z,1.50
2023-02-16T01:41:41.468Z,1.77
2023-02-16T01:45:04.885Z,1.48
2023-02-16T01:48:13.070Z,1.50
2023-02-16T01:51:17.664Z,1.45
2023-02-16T01:54:49.794Z,1.70
2023-02-16T01:58:12.614Z,1.60
2023-02-16T02:01:37.808Z,2.10
2023-02-16T02:05:09.880Z,2.30
2023-02-16T02:08:48.198Z,2.45
2023-02-16T02:11:57.256Z,2.05
2023-02-16T02:14:58.902Z,1.80
2023-02-16T02:18:01.070Z,2.08
2023-02-16T02:21:46.516Z,1.90
2023-02-16T02:25:04.234Z,1.90
2023-02-16T02:28:15.915Z,1.85
2023-02-16T02:31:37.342Z,1.77
2023-02-16T02:38:17.600Z,1.88
2023-02-16T02:41:58.096Z,1.73
2023-02-16T02:45:42.615Z,2.00
2023-02-16T02:48:44.199Z,1.90
2023-02-16T02:51:45.927Z,1.92
2023-02-16T02:55:08.042Z,1.85
2023-02-16T02:58:31.924Z,2.00
2023-02-16T03:01:36.999Z,2.10
2023-02-16T03:04:39.085Z,2.03
2023-02-16T03:07:46.823Z,2.25
2023-02-16T03:11:11.345Z,2.42
2023-02-16T03:14:41.394Z,2.45
